createdAt,value
2019-02-25T00:00:32.459Z,3.70
2019-02-25T00:03:01.187Z,3.70
2019-02-25T00:05:29.815Z,3.70
2019-02-25T00:07:58.753Z,3.70
2019-02-25T00:10:30.023Z,3.60
2019-02-25T00:12:58.676Z,3.60
2019-02-25T00:15:27.413Z,3.70
2019-02-25T00:17:56.771Z,3.70
2019-02-25T00:20:25.622Z,3.70
2019-02-25T00:22:54.203Z,3.70
2019-02-25T00:25:24.144Z,3.60
2019-02-25T00:27:52.755Z,3.50
2019-02-25T00:30:21.401Z,3.50
2019-02-25T00:32:50.185Z,3.60
2019-02-25T00:35:18.790Z,3.60
2019-02-25T00:37:47.459Z,3.60
2019-02-25T00:40:16.528Z,3.70
2019-02-25T00:42:46.857Z,3.70
2019-02-25T00:45:16.733Z,3.60
2019-02-25T00:47:45.440Z,3.60
2019-02-25T00:50:15.741Z,3.40
2019-02-25T00:52:46.851Z,3.30
2019-02-25T00:55:16.948Z,3.30
2019-02-25T00:57:45.840Z,3.30
2019-02-25T01:00:19.689Z,3.40
2019-02-25T01:02:48.501Z,3.40
2019-02-25T01:05:17.769Z,3.30
2019-02-25T01:07:46.501Z,3.10
2019-02-25T01:10:16.390Z,3.00
2019-02-25T01:12:46.178Z,3.00
2019-02-25T01:15:15.405Z,3.10
2019-02-25T01:18:09.122Z,3.20
2019-02-25T01:20:37.881Z,3.10
2019-02-25T01:23:06.588Z,3.10
2019-02-25T01:25:36.392Z,3.10
2019-02-25T01:28:33.688Z,3.10
2019-02-25T01:31:02.311Z,3.10
2019-02-25T01:33:31.108Z,3.10
2019-02-25T01:35:59.662Z,3.00
2019-02-25T01:38:28.290Z,2.80
2019-02-25T01:40:56.918Z,2.80
2019-02-25T01:43:25.590Z,3.10
2019-02-25T01:45:54.228Z,3.10
2019-02-25T01:48:25.248Z,3.10
2019-02-25T01:50:53.831Z,3.20
2019-02-25T01:53:22.448Z,3.20
2019-02-25T01:55:51.080Z,3.20
2019-02-25T01:58:23.019Z,3.30
2019-02-25T02:00:52.830Z,3.20
2019-02-25T02:03:21.396Z,3.10
2019-02-25T02:05:50.142Z,3.00
2019-02-25T02:08:19.045Z,3.00
2019-02-25T02:10:47.604Z,3.00
2019-02-25T02:13:16.326Z,3.00
2019-02-25T02:15:52.266Z,3.00
2019-02-25T02:18:25.148Z,2.90
2019-02-25T02:20:53.774Z,2.80
2019-02-25T02:23:25.488Z,2.60
2019-02-25T02:25:54.155Z,2.50
2019-02-25T02:28:25.781Z,2.50
2019-02-25T02:30:54.412Z,2.60
2019-02-25T02:33:23.068Z,2.70
2019-02-25T02:35:51.696Z,2.50
2019-02-25T02:38:20.394Z,2.40
2019-02-25T02:40:49.029Z,2.60
2019-02-25T02:43:17.582Z,2.80
2019-02-25T02:46:06.106Z,2.80
2019-02-25T02:48:46.877Z,2.80
2019-02-25T02:51:15.535Z,2.80
2019-02-25T02:53:44.171Z,2.70
2019-02-25T02:56:12.722Z,2.50
2019-02-25T02:58:41.395Z,2.30
2019-02-25T03:01:12.927Z,2.30
2019-02-25T03:03:41.569Z,2.30
2019-02-25T03:06:10.219Z,2.20
2019-02-25T03:08:38.769Z,2.00
2019-02-25T03:11:07.672Z,2.00
2019-02-25T03:13:36.327Z,2.10
2019-02-25T03:16:06.809Z,2.20
2019-02-25T03:18:37.296Z,2.30
2019-02-25T03:21:06.525Z,2.30
2019-02-25T03:23:35.159Z,2.40
2019-02-25T03:26:03.790Z,2.50
2019-02-25T03:28:32.364Z,2.60
2019-02-25T03:31:01.111Z,2.60
2019-02-25T03:33:29.720Z,2.60
2019-02-25T03:35:58.572Z,2.60
2019-02-25T03:38:46.540Z,2.60
2019-02-25T03:41:15.427Z,2.40
2019-02-25T03:43:43.976Z,2.40
2019-02-25T03:46:12.880Z,2.50
2019-02-25T03:48:41.889Z,2.40
2019-02-25T03:51:10.705Z,2.30
2019-02-25T03:53:42.407Z,2.20
2019-02-25T03:56:13.173Z,2.00
2019-02-25T03:58:41.867Z,2.00
2019-02-25T04:01:12.516Z,2.00
2019-02-25T04:03:44.903Z,2.10
2019-02-25T04:06:13.535Z,2.30
2019-02-25T04:08:42.245Z,2.30
2019-02-25T04:11:11.006Z,2.40
2019-02-25T04:13:39.639Z,2.40
2019-02-25T04:16:08.333Z,2.30
2019-02-25T04:18:36.992Z,2.30
2019-02-25T04:21:05.699Z,2.30
2019-02-25T04:23:53.839Z,2.30
2019-02-25T04:26:22.573Z,2.20
2019-02-25T04:28:51.614Z,2.10
2019-02-25T04:31:20.268Z,2.00
2019-02-25T04:33:48.824Z,2.00
2019-02-25T04:36:17.445Z,2.00
2019-02-25T04:38:46.036Z,1.90
2019-02-25T04:41:16.238Z,1.80
2019-02-25T04:43:44.840Z,1.80
2019-02-25T04:46:13.444Z,1.70
2019-02-25T04:48:42.142Z,1.70
2019-02-25T04:51:11.731Z,1.60
2019-02-25T04:53:40.399Z,1.70
2019-02-25T04:56:09.103Z,1.70
2019-02-25T04:58:40.510Z,1.70
2019-02-25T05:01:09.345Z,1.60
2019-02-25T05:03:38.250Z,1.60
2019-02-25T05:06:06.899Z,1.60
2019-02-25T05:08:35.511Z,1.60
2019-02-25T05:11:06.004Z,1.60
2019-02-25T05:13:34.704Z,1.60
2019-02-25T05:16:03.527Z,1.50
2019-02-25T05:18:32.267Z,1.50
2019-02-25T05:21:00.836Z,1.50
2019-02-25T05:23:29.501Z,1.40
2019-02-25T05:25:58.059Z,1.50
2019-02-25T05:28:26.690Z,1.40
2019-02-25T05:30:55.373Z,1.40
2019-02-25T05:33:24.198Z,1.40
2019-02-25T05:35:52.814Z,1.30
2019-02-25T05:38:21.484Z,1.30
2019-02-25T05:40:53.123Z,1.20
2019-02-25T05:43:24.345Z,1.10
2019-02-25T05:45:55.748Z,1.00
2019-02-25T05:48:24.308Z,1.10
2019-02-25T05:50:53.304Z,1.10
2019-02-25T05:53:21.906Z,1.10
2019-02-25T05:55:50.534Z,1.20
2019-02-25T05:58:22.526Z,1.30
2019-02-25T06:00:51.214Z,1.40
2019-02-25T06:03:21.386Z,1.30
2019-02-25T06:05:50.199Z,1.40
2019-02-25T06:08:18.734Z,1.40
2019-02-25T06:10:47.392Z,1.40
2019-02-25T06:13:16.022Z,1.40
2019-02-25T06:15:47.214Z,1.20
2019-02-25T06:18:21.580Z,1.20
2019-02-25T06:20:50.482Z,1.20
2019-02-25T06:23:19.102Z,1.10
2019-02-25T06:25:47.657Z,1.20
2019-02-25T06:28:16.431Z,1.10
2019-02-25T06:30:46.774Z,1.10
2019-02-25T06:33:15.316Z,1.10
2019-02-25T06:35:44.009Z,1.10
2019-02-25T06:38:12.568Z,1.20
2019-02-25T06:40:41.135Z,1.20
2019-02-25T06:43:09.795Z,1.20
2019-02-25T06:45:38.444Z,1.30
2019-02-25T06:48:07.283Z,1.30
2019-02-25T06:50:37.076Z,1.40
2019-02-25T06:53:07.238Z,1.50
2019-02-25T06:55:35.958Z,1.70
2019-02-25T06:58:23.921Z,1.90
2019-02-25T07:00:52.790Z,2.10
2019-02-25T07:03:21.494Z,2.30
2019-02-25T07:05:58.123Z,2.50
2019-02-25T07:08:46.483Z,2.60
2019-02-25T07:11:19.456Z,2.80
2019-02-25T07:13:55.387Z,3.00
2019-02-25T07:16:26.037Z,3.10
2019-02-25T07:18:59.349Z,3.00
2019-02-25T07:21:35.731Z,2.90
2019-02-25T07:24:09.398Z,3.00
2019-02-25T07:26:42.349Z,3.10
2019-02-25T07:32:20.372Z,3.50
2019-02-25T07:34:56.955Z,3.70
2019-02-25T07:37:45.857Z,3.70
2019-02-25T07:40:18.943Z,3.90
2019-02-25T07:42:55.186Z,4.00
2019-02-25T07:45:41.677Z,4.10
2019-02-25T07:48:28.222Z,4.30
2019-02-25T07:51:00.870Z,4.30
2019-02-25T07:53:41.179Z,4.40
2019-02-25T07:56:24.745Z,4.50
2019-02-25T07:59:05.291Z,4.60
2019-02-25T08:01:43.202Z,4.70
2019-02-25T08:04:13.629Z,4.80
2019-02-25T08:06:48.245Z,4.90
2019-02-25T08:09:31.658Z,5.10
2019-02-25T08:12:05.000Z,5.20
2019-02-25T08:14:35.371Z,5.40
2019-02-25T08:17:13.635Z,5.60
2019-02-25T08:19:46.642Z,5.90
2019-02-25T08:22:16.912Z,6.20
2019-02-25T08:24:53.218Z,6.30
2019-02-25T08:27:27.801Z,6.40
2019-02-25T08:30:04.293Z,6.60
2019-02-25T08:32:50.937Z,6.80
2019-02-25T08:35:44.804Z,7.10
2019-02-25T08:38:17.755Z,7.40
2019-02-25T08:40:53.796Z,7.80
2019-02-25T08:43:30.138Z,8.20
2019-02-25T08:46:15.807Z,8.60
2019-02-25T08:49:01.209Z,9.00
2019-02-25T08:51:33.859Z,9.30
2019-02-25T08:54:03.961Z,9.50
2019-02-25T08:56:32.626Z,9.60
2019-02-25T08:59:03.118Z,9.90
2019-02-25T09:01:32.234Z,10.40
2019-02-25T09:04:00.828Z,10.80
2019-02-25T09:06:29.792Z,11.20
2019-02-25T09:08:58.496Z,11.60
2019-02-25T09:11:27.316Z,11.70
2019-02-25T09:13:59.716Z,11.80
2019-02-25T09:16:30.654Z,11.80
2019-02-25T09:18:59.825Z,12.00
2019-02-25T09:21:32.939Z,12.10
2019-02-25T09:24:01.572Z,12.20
2019-02-25T09:26:30.502Z,12.80
2019-02-25T09:28:59.883Z,13.30
2019-02-25T09:31:28.593Z,14.00
2019-02-25T09:33:57.232Z,15.00
2019-02-25T09:36:26.270Z,15.60
2019-02-25T09:38:56.770Z,16.50
2019-02-25T09:41:30.233Z,17.60
2019-02-25T09:43:59.594Z,18.30
2019-02-25T09:46:29.731Z,18.70
2019-02-25T09:48:58.362Z,18.50
2019-02-25T09:51:28.992Z,18.20
2019-02-25T09:53:57.634Z,18.00
2019-02-25T09:56:26.312Z,17.90
2019-02-25T09:58:57.994Z,17.60
2019-02-25T10:01:29.366Z,17.00
2019-02-25T10:03:57.997Z,16.70
2019-02-25T10:06:26.636Z,16.40
2019-02-25T10:08:56.390Z,15.90
2019-02-25T10:11:24.985Z,15.20
2019-02-25T10:13:54.068Z,15.40
2019-02-25T10:16:25.822Z,16.20
2019-02-25T10:18:54.229Z,17.00
2019-02-25T10:21:23.242Z,17.30
2019-02-25T10:23:52.155Z,17.50
2019-02-25T10:26:20.730Z,18.70
2019-02-25T10:28:49.325Z,19.90
2019-02-25T10:31:18.577Z,20.00
2019-02-25T10:33:47.213Z,19.70
2019-02-25T10:36:15.907Z,19.20
2019-02-25T10:38:44.540Z,19.00
2019-02-25T10:41:13.246Z,18.40
2019-02-25T10:43:41.934Z,18.10
2019-02-25T10:46:11.619Z,18.00
2019-02-25T10:48:41.184Z,18.10
2019-02-25T10:51:11.544Z,18.20
2019-02-25T10:53:45.113Z,18.40
2019-02-25T10:56:25.997Z,18.30
2019-02-25T10:58:54.627Z,18.40
2019-02-25T11:01:24.561Z,18.20
2019-02-25T11:03:54.305Z,18.00
2019-02-25T11:06:24.588Z,18.20
2019-02-25T11:09:13.285Z,18.30
2019-02-25T11:11:42.385Z,18.40
2019-02-25T11:14:11.073Z,18.10
2019-02-25T11:16:42.000Z,17.80
2019-02-25T11:19:11.179Z,17.90
2019-02-25T11:21:42.221Z,18.10
2019-02-25T11:24:16.680Z,18.20
2019-02-25T11:26:46.263Z,18.50
2019-02-25T11:29:18.348Z,18.80
2019-02-25T11:31:47.822Z,19.40
2019-02-25T11:34:18.547Z,19.80
2019-02-25T11:36:48.139Z,19.90
2019-02-25T11:39:17.741Z,20.50
2019-02-25T11:41:47.907Z,21.30
2019-02-25T11:44:17.168Z,21.80
2019-02-25T11:46:46.889Z,22.00
2019-02-25T11:49:16.019Z,22.10
2019-02-25T11:51:44.663Z,21.40
2019-02-25T11:54:13.575Z,20.80
2019-02-25T11:56:45.027Z,20.80
2019-02-25T11:59:19.599Z,20.90
2019-02-25T12:01:48.389Z,21.10
2019-02-25T12:04:17.022Z,21.80
2019-02-25T12:06:48.150Z,22.40
2019-02-25T12:09:17.326Z,23.30
2019-02-25T12:11:47.502Z,23.70
2019-02-25T12:14:16.390Z,24.20
2019-02-25T12:16:45.189Z,24.20
2019-02-25T12:19:17.921Z,23.90
2019-02-25T12:21:49.634Z,24.50
2019-02-25T12:24:18.251Z,24.70
2019-02-25T12:26:48.420Z,24.00
2019-02-25T12:29:20.182Z,24.30
2019-02-25T12:31:49.835Z,24.40
2019-02-25T12:34:20.011Z,24.10
2019-02-25T12:36:49.421Z,24.00
2019-02-25T12:39:18.038Z,23.70
2019-02-25T12:41:48.218Z,23.40
2019-02-25T12:44:16.822Z,23.10
2019-02-25T12:46:48.567Z,23.10
2019-02-25T12:49:17.280Z,23.30
2019-02-25T12:51:49.999Z,23.50
2019-02-25T12:54:18.640Z,23.80
2019-02-25T12:56:48.578Z,24.10
2019-02-25T12:59:17.765Z,24.40
2019-02-25T13:01:46.601Z,25.00
2019-02-25T13:04:15.246Z,25.30
2019-02-25T13:06:45.752Z,25.60
2019-02-25T13:09:14.516Z,25.40
2019-02-25T13:11:49.173Z,25.10
2019-02-25T13:14:18.279Z,24.40
2019-02-25T13:16:46.917Z,23.80
2019-02-25T13:19:18.767Z,24.00
2019-02-25T13:21:47.474Z,23.60
2019-02-25T13:24:16.259Z,23.20
2019-02-25T13:26:48.215Z,23.40
2019-02-25T13:29:18.652Z,23.60
2019-02-25T13:31:49.757Z,23.80
2019-02-25T13:34:18.446Z,23.90
2019-02-25T13:36:47.312Z,23.50
2019-02-25T13:39:17.434Z,23.30
2019-02-25T13:41:46.303Z,23.10
2019-02-25T13:44:17.759Z,22.70
2019-02-25T13:46:50.126Z,22.10
2019-02-25T13:49:18.973Z,21.70
2019-02-25T13:51:49.099Z,21.10
2019-02-25T13:54:17.859Z,21.20
2019-02-25T13:56:47.292Z,21.10
2019-02-25T13:59:16.194Z,20.80
2019-02-25T14:01:46.056Z,20.60
2019-02-25T14:04:14.792Z,20.80
2019-02-25T14:06:43.374Z,20.60
2019-02-25T14:09:13.707Z,19.90
2019-02-25T14:11:42.477Z,19.80
2019-02-25T14:14:11.508Z,19.80
2019-02-25T14:16:41.620Z,19.90
2019-02-25T14:19:15.367Z,20.10
2019-02-25T14:21:46.623Z,20.30
2019-02-25T14:24:15.787Z,20.30
2019-02-25T14:26:45.762Z,20.30
2019-02-25T14:29:14.463Z,20.40
2019-02-25T14:31:43.174Z,20.50
2019-02-25T14:34:11.908Z,20.80
2019-02-25T14:36:40.607Z,20.90
2019-02-25T14:39:24.951Z,21.00
2019-02-25T14:41:54.438Z,21.20
2019-02-25T14:44:22.068Z,21.20
2019-02-25T14:46:50.818Z,21.00
2019-02-25T14:49:19.513Z,20.90
2019-02-25T14:51:48.224Z,20.60
2019-02-25T14:54:19.776Z,20.30
2019-02-25T14:56:50.210Z,19.90
2019-02-25T14:59:20.310Z,19.50
2019-02-25T15:01:49.111Z,19.10
2019-02-25T15:04:17.888Z,19.00
2019-02-25T15:06:46.595Z,18.90
2019-02-25T15:09:16.255Z,18.70
2019-02-25T15:11:45.231Z,18.70
2019-02-25T15:14:23.326Z,18.60
2019-02-25T15:16:52.040Z,18.60
2019-02-25T15:19:20.654Z,18.40
2019-02-25T15:21:50.087Z,18.10
2019-02-25T15:24:19.816Z,17.90
2019-02-25T15:26:48.447Z,17.60
2019-02-25T15:29:17.391Z,17.40
2019-02-25T15:31:50.921Z,17.30
2019-02-25T15:34:21.479Z,17.10
2019-02-25T15:36:50.316Z,17.00
2019-02-25T15:39:23.469Z,16.90
2019-02-25T15:41:55.080Z,16.80
2019-02-25T15:44:23.984Z,16.70
2019-02-25T15:46:53.093Z,16.70
2019-02-25T15:49:26.140Z,16.60
2019-02-25T15:51:59.132Z,16.50
2019-02-25T15:54:30.880Z,16.40
2019-02-25T15:57:01.215Z,16.20
2019-02-25T15:59:32.207Z,16.00
2019-02-25T16:02:00.380Z,15.90
2019-02-25T16:04:33.777Z,15.80
2019-02-25T16:07:08.421Z,15.70
2019-02-25T16:09:38.759Z,15.50
2019-02-25T16:12:09.452Z,15.20
2019-02-25T16:14:38.984Z,14.90
2019-02-25T16:17:09.559Z,14.80
2019-02-25T16:19:45.455Z,14.60
2019-02-25T16:22:09.704Z,14.40
2019-02-25T16:24:39.139Z,14.10
2019-02-25T16:27:08.626Z,13.80
2019-02-25T16:29:37.625Z,13.70
2019-02-25T16:32:09.422Z,13.50
2019-02-25T16:34:40.467Z,13.20
2019-02-25T16:37:12.026Z,13.00
2019-02-25T16:39:40.471Z,12.50
2019-02-25T16:42:12.126Z,12.20
2019-02-25T16:44:40.843Z,12.00
2019-02-25T16:47:09.754Z,11.90
2019-02-25T16:49:42.248Z,11.70
2019-02-25T16:52:13.850Z,11.50
2019-02-25T16:54:42.372Z,11.30
2019-02-25T16:57:11.218Z,11.20
2019-02-25T16:59:41.346Z,11.10
2019-02-25T17:02:13.990Z,10.80
2019-02-25T17:04:40.495Z,10.80
2019-02-25T17:07:11.853Z,10.90
2019-02-25T17:09:44.384Z,10.70
2019-02-25T17:12:13.417Z,10.60
2019-02-25T17:14:43.762Z,10.50
2019-02-25T17:17:13.264Z,10.30
2019-02-25T17:19:45.112Z,10.30
2019-02-25T17:22:15.214Z,10.20
2019-02-25T17:24:45.425Z,10.10
2019-02-25T17:27:18.260Z,10.00
2019-02-25T17:29:46.905Z,9.90
2019-02-25T17:32:16.674Z,9.70
2019-02-25T17:34:47.463Z,9.70
2019-02-25T17:37:17.142Z,9.70
2019-02-25T17:39:46.049Z,9.50
2019-02-25T17:42:15.454Z,9.40
2019-02-25T17:44:47.349Z,9.40
2019-02-25T17:47:24.043Z,9.30
2019-02-25T17:49:49.333Z,9.30
2019-02-25T17:52:18.967Z,9.20
2019-02-25T17:54:48.727Z,9.20
2019-02-25T17:57:17.752Z,9.10
2019-02-25T17:59:48.320Z,9.10
2019-02-25T18:02:19.630Z,9.10
2019-02-25T18:04:56.172Z,9.00
2019-02-25T18:07:25.850Z,8.80
2019-02-25T18:09:55.642Z,8.90
2019-02-25T18:12:27.864Z,8.80
2019-02-25T18:14:58.995Z,8.80
2019-02-25T18:17:27.742Z,8.70
2019-02-25T18:20:00.246Z,8.70
2019-02-25T18:22:33.018Z,8.70
2019-02-25T18:25:04.958Z,8.60
2019-02-25T18:27:35.166Z,8.50
2019-02-25T18:30:08.352Z,8.50
2019-02-25T18:32:38.692Z,8.30
2019-02-25T18:35:16.491Z,8.20
2019-02-25T18:37:49.222Z,8.10
2019-02-25T18:40:19.074Z,8.00
2019-02-25T18:42:48.948Z,7.90
2019-02-25T18:45:20.759Z,7.90
2019-02-25T18:47:51.273Z,8.00
2019-02-25T18:50:24.151Z,7.90
2019-02-25T18:53:01.342Z,7.80
2019-02-25T18:55:34.267Z,7.80
2019-02-25T18:58:07.456Z,7.80
2019-02-25T19:00:45.334Z,7.90
2019-02-25T19:03:16.598Z,7.90
2019-02-25T19:05:45.979Z,7.80
2019-02-25T19:08:22.864Z,7.70
2019-02-25T19:10:52.710Z,7.60
2019-02-25T19:13:24.833Z,7.50
2019-02-25T19:15:59.139Z,7.60
2019-02-25T19:18:34.497Z,7.60
2019-02-25T19:21:04.464Z,7.50
2019-02-25T19:23:35.388Z,7.60
2019-02-25T19:26:05.348Z,7.60
2019-02-25T19:28:44.037Z,7.60
2019-02-25T19:31:19.719Z,7.70
2019-02-25T19:33:49.604Z,7.70
2019-02-25T19:36:19.204Z,7.80
2019-02-25T19:38:51.481Z,7.80
2019-02-25T19:41:22.418Z,7.80
2019-02-25T19:43:58.957Z,7.70
2019-02-25T19:46:24.627Z,7.60
2019-02-25T19:48:56.601Z,7.60
2019-02-25T19:51:27.440Z,7.40
2019-02-25T19:53:59.851Z,7.40
2019-02-25T19:56:31.440Z,7.40
2019-02-25T19:59:05.262Z,7.50
2019-02-25T20:01:33.361Z,7.50
2019-02-25T20:04:06.553Z,7.30
2019-02-25T20:06:35.725Z,7.20
2019-02-25T20:09:07.632Z,7.10
2019-02-25T20:11:38.296Z,7.00
2019-02-25T20:14:06.989Z,7.00
2019-02-25T20:16:35.675Z,7.00
2019-02-25T20:19:12.971Z,6.90
2019-02-25T20:21:43.710Z,6.70
2019-02-25T20:24:14.658Z,6.60
2019-02-25T20:26:48.655Z,6.60
2019-02-25T20:29:15.113Z,6.60
2019-02-25T20:31:44.178Z,6.50
2019-02-25T20:34:18.490Z,6.50
2019-02-25T20:36:48.341Z,6.50
2019-02-25T20:39:17.497Z,6.50
2019-02-25T20:41:49.852Z,6.60
2019-02-25T20:44:18.568Z,6.60
2019-02-25T20:46:52.486Z,6.60
2019-02-25T20:49:22.314Z,6.60
2019-02-25T20:51:54.392Z,6.60
2019-02-25T20:54:22.979Z,6.60
2019-02-25T20:56:53.278Z,6.60
2019-02-25T20:59:23.977Z,6.70
2019-02-25T21:01:53.285Z,6.80
2019-02-25T21:04:22.344Z,6.70
2019-02-25T21:06:51.182Z,6.60
2019-02-25T21:09:20.073Z,6.60
2019-02-25T21:11:49.045Z,6.50
2019-02-25T21:14:18.777Z,6.50
2019-02-25T21:16:53.787Z,6.50
2019-02-25T21:19:23.405Z,6.50
2019-02-25T21:21:55.022Z,6.40
2019-02-25T21:24:22.357Z,6.40
2019-02-25T21:26:51.300Z,6.40
2019-02-25T21:29:23.172Z,6.40
2019-02-25T21:31:54.076Z,6.40
2019-02-25T21:34:24.404Z,6.30
2019-02-25T21:36:54.212Z,6.30
2019-02-25T21:39:22.877Z,6.20
2019-02-25T21:41:51.898Z,6.10
2019-02-25T21:44:21.338Z,6.10
2019-02-25T21:46:54.062Z,6.10
2019-02-25T21:49:25.444Z,6.10
2019-02-25T21:51:53.300Z,6.10
2019-02-25T21:54:22.275Z,6.10
2019-02-25T21:56:50.953Z,6.20
2019-02-25T21:59:19.597Z,6.20
2019-02-25T22:01:49.730Z,6.30
2019-02-25T22:04:20.240Z,6.30
2019-02-25T22:06:51.285Z,6.30
2019-02-25T22:09:35.468Z,6.20
2019-02-25T22:11:52.914Z,5.90
2019-02-25T22:14:25.103Z,5.70
2019-02-25T22:16:57.088Z,5.70
2019-02-25T22:19:26.671Z,5.80
2019-02-25T22:21:57.579Z,5.90
2019-02-25T22:24:32.083Z,5.90
2019-02-25T22:27:01.330Z,6.00
2019-02-25T22:29:34.826Z,5.90
2019-02-25T22:32:06.393Z,5.90
2019-02-25T22:34:38.519Z,5.70
2019-02-25T22:37:07.945Z,5.70
2019-02-25T22:39:36.717Z,5.60
2019-02-25T22:42:07.335Z,5.60
2019-02-25T22:44:35.734Z,5.50
2019-02-25T22:47:09.185Z,5.40
2019-02-25T22:49:36.195Z,5.50
2019-02-25T22:52:05.575Z,5.50
2019-02-25T22:54:37.091Z,5.60
2019-02-25T22:57:05.549Z,5.60
2019-02-25T22:59:35.535Z,5.70
2019-02-25T23:02:04.727Z,5.70
2019-02-25T23:04:36.037Z,5.50
2019-02-25T23:07:04.521Z,5.30
2019-02-25T23:09:33.261Z,5.30
2019-02-25T23:12:02.945Z,5.20
2019-02-25T23:14:32.438Z,5.10
2019-02-25T23:17:04.530Z,5.00
2019-02-25T23:19:34.274Z,5.00
2019-02-25T23:22:03.155Z,5.10
2019-02-25T23:24:35.292Z,5.10
2019-02-25T23:27:03.885Z,5.20
2019-02-25T23:29:33.203Z,5.20
2019-02-25T23:32:02.554Z,5.20
2019-02-25T23:34:58.834Z,5.30
2019-02-25T23:37:27.587Z,5.30
2019-02-25T23:40:00.030Z,5.20
2019-02-25T23:42:26.517Z,5.10
2019-02-25T23:44:55.126Z,5.20
2019-02-25T23:47:28.823Z,5.40
2019-02-25T23:49:57.114Z,5.40
2019-02-25T23:52:30.294Z,5.30
2019-02-25T23:54:58.785Z,5.30
2019-02-25T23:57:28.749Z,5.20
